createdAt,value
2023-05-15T00:00:39.552Z,4.30
2023-05-15T00:03:05.982Z,3.57
2023-05-15T00:05:32.559Z,4.00
2023-05-15T00:07:59.064Z,3.87
2023-05-15T00:10:25.623Z,3.43
2023-05-15T00:12:52.055Z,3.60
2023-05-15T00:15:18.454Z,4.10
2023-05-15T00:17:44.846Z,3.43
2023-05-15T00:20:11.770Z,3.17
2023-05-15T00:22:38.327Z,3.23
2023-05-15T00:25:05.194Z,3.53
2023-05-15T00:27:31.684Z,3.23
2023-05-15T00:29:58.094Z,3.30
2023-05-15T00:32:24.497Z,3.27
2023-05-15T00:34:50.905Z,3.13
2023-05-15T00:37:17.320Z,3.03
2023-05-15T00:39:43.731Z,3.10
2023-05-15T00:42:10.357Z,3.03
2023-05-15T00:44:38.301Z,2.70
2023-05-15T00:47:05.794Z,3.20
2023-05-15T00:49:35.374Z,3.20
2023-05-15T00:52:03.655Z,2.90
2023-05-15T00:54:30.475Z,2.90
2023-05-15T00:56:58.145Z,3.50
2023-05-15T00:59:31.816Z,2.67
2023-05-15T01:01:58.300Z,2.80
2023-05-15T01:04:25.117Z,3.07
2023-05-15T01:06:54.505Z,3.57
2023-05-15T01:09:24.581Z,4.07
2023-05-15T01:11:54.450Z,3.20
2023-05-15T01:14:20.989Z,3.40
2023-05-15T01:16:47.433Z,3.17
2023-05-15T01:21:51.814Z,4.00
2023-05-15T01:24:36.062Z,3.13
2023-05-15T01:27:17.757Z,3.57
2023-05-15T01:30:08.098Z,3.23
2023-05-15T01:32:40.143Z,3.40
2023-05-15T01:35:31.312Z,3.00
2023-05-15T01:38:27.634Z,3.47
2023-05-15T01:41:02.160Z,3.30
2023-05-15T01:43:31.778Z,3.37
2023-05-15T01:45:58.939Z,3.27
2023-05-15T01:48:28.332Z,3.37
2023-05-15T01:50:58.123Z,3.70
2023-05-15T01:53:26.709Z,3.20
2023-05-15T01:55:53.600Z,3.43
2023-05-15T01:58:20.831Z,3.90
2023-05-15T02:00:48.649Z,3.50
2023-05-15T02:03:15.889Z,4.00
2023-05-15T02:05:42.900Z,3.70
2023-05-15T02:08:09.769Z,3.83
2023-05-15T02:10:36.468Z,3.60
2023-05-15T02:13:02.979Z,4.73
2023-05-15T02:15:30.053Z,3.33
2023-05-15T02:17:56.872Z,3.77
2023-05-15T02:20:23.359Z,3.83
2023-05-15T02:22:49.733Z,3.50
2023-05-15T02:25:16.197Z,3.80
2023-05-15T02:27:56.041Z,3.90
2023-05-15T02:30:43.097Z,3.80
2023-05-15T02:33:22.857Z,3.03
2023-05-15T02:36:01.774Z,3.67
2023-05-15T02:38:33.924Z,3.77
2023-05-15T02:41:01.674Z,3.30
2023-05-15T02:43:29.200Z,3.97
2023-05-15T02:45:56.847Z,3.80
2023-05-15T02:48:24.465Z,3.70
2023-05-15T02:50:52.255Z,3.50
2023-05-15T02:53:18.656Z,3.90
2023-05-15T02:55:45.104Z,3.80
2023-05-15T02:58:11.728Z,3.50
2023-05-15T03:00:38.137Z,3.53
2023-05-15T03:03:04.741Z,3.60
2023-05-15T03:05:31.238Z,4.13
2023-05-15T03:07:58.295Z,4.00
2023-05-15T03:10:24.716Z,3.80
2023-05-15T03:12:51.468Z,4.60
2023-05-15T03:15:18.253Z,3.97
2023-05-15T03:17:44.802Z,4.40
2023-05-15T03:20:11.321Z,5.47
2023-05-15T03:22:37.730Z,4.70
2023-05-15T03:25:04.409Z,4.73
2023-05-15T03:27:30.907Z,4.97
2023-05-15T03:29:57.335Z,4.83
2023-05-15T03:32:23.800Z,4.50
2023-05-15T03:34:50.218Z,4.70
2023-05-15T03:37:16.606Z,4.40
2023-05-15T03:39:42.997Z,4.33
2023-05-15T03:42:09.445Z,4.20
2023-05-15T03:44:35.828Z,4.20
2023-05-15T03:47:02.447Z,4.73
2023-05-15T03:49:28.898Z,4.50
2023-05-15T03:51:56.671Z,5.10
2023-05-15T03:54:23.238Z,4.90
2023-05-15T03:56:49.688Z,5.17
2023-05-15T03:59:16.093Z,4.90
2023-05-15T04:01:59.468Z,4.80
2023-05-15T04:04:28.922Z,5.37
2023-05-15T04:06:55.404Z,5.20
2023-05-15T04:09:21.788Z,5.43
2023-05-15T04:11:48.241Z,5.60
2023-05-15T04:14:14.650Z,5.73
2023-05-15T04:16:41.117Z,5.87
2023-05-15T04:19:07.619Z,6.13
2023-05-15T04:21:34.087Z,6.20
2023-05-15T04:24:00.522Z,6.70
2023-05-15T04:26:26.934Z,7.53
2023-05-15T04:29:03.450Z,5.90
2023-05-15T04:31:31.476Z,7.00
2023-05-15T04:33:58.167Z,7.93
2023-05-15T04:36:24.665Z,7.60
2023-05-15T04:38:51.645Z,7.90
2023-05-15T04:41:18.610Z,8.47
2023-05-15T04:43:45.025Z,8.47
2023-05-15T04:46:11.558Z,9.07
2023-05-15T04:48:38.078Z,8.20
2023-05-15T04:51:04.543Z,9.60
2023-05-15T04:53:30.939Z,9.23
2023-05-15T04:55:57.428Z,9.13
2023-05-15T04:58:23.855Z,8.77
2023-05-15T05:00:50.312Z,9.07
2023-05-15T05:03:16.793Z,10.80
2023-05-15T05:05:43.259Z,8.43
2023-05-15T05:08:09.673Z,8.03
2023-05-15T05:10:36.078Z,7.10
2023-05-15T05:13:02.469Z,7.60
2023-05-15T05:15:28.915Z,7.40
2023-05-15T05:17:55.354Z,8.50
2023-05-15T05:20:21.757Z,7.70
2023-05-15T05:22:48.272Z,8.57
2023-05-15T05:25:14.716Z,10.07
2023-05-15T05:27:41.139Z,10.20
2023-05-15T05:30:08.699Z,10.77
2023-05-15T05:32:35.260Z,9.93
2023-05-15T05:35:01.814Z,11.50
2023-05-15T05:37:28.202Z,10.90
2023-05-15T05:39:54.858Z,11.20
2023-05-15T05:42:21.292Z,10.53
2023-05-15T05:44:47.685Z,11.33
2023-05-15T05:47:14.304Z,12.80
2023-05-15T05:49:40.896Z,12.63
2023-05-15T05:52:08.299Z,13.33
2023-05-15T05:54:35.116Z,13.77
2023-05-15T05:57:01.529Z,14.50
2023-05-15T05:59:29.153Z,14.50
2023-05-15T06:01:55.891Z,15.13
2023-05-15T06:04:22.470Z,15.90
2023-05-15T06:06:50.139Z,19.87
2023-05-15T06:09:16.750Z,26.60
2023-05-15T06:11:43.180Z,28.23
2023-05-15T06:14:09.740Z,25.43
2023-05-15T06:16:36.335Z,25.47
2023-05-15T06:19:02.821Z,32.40
2023-05-15T06:21:29.337Z,37.53
2023-05-15T06:23:55.993Z,38.47
2023-05-15T06:26:22.489Z,38.67
2023-05-15T06:28:49.927Z,41.77
2023-05-15T06:31:17.366Z,40.27
2023-05-15T06:33:43.851Z,40.33
2023-05-15T06:36:10.259Z,41.53
2023-05-15T06:38:36.639Z,39.53
2023-05-15T06:41:03.125Z,39.47
2023-05-15T06:43:29.497Z,39.47
2023-05-15T06:45:55.989Z,37.80
2023-05-15T06:48:22.366Z,41.30
2023-05-15T06:50:48.810Z,39.20
2023-05-15T06:53:15.243Z,38.83
2023-05-15T06:55:41.665Z,38.47
2023-05-15T06:58:08.108Z,40.07
2023-05-15T07:00:34.530Z,38.37
2023-05-15T07:03:01.024Z,38.30
2023-05-15T07:05:27.595Z,42.00
2023-05-15T07:07:54.092Z,40.47
2023-05-15T07:10:20.613Z,40.87
2023-05-15T07:12:47.049Z,39.67
2023-05-15T07:15:13.556Z,41.77
2023-05-15T07:17:40.035Z,40.23
2023-05-15T07:20:06.974Z,40.93
2023-05-15T07:22:38.543Z,40.87
2023-05-15T07:25:08.679Z,41.63
2023-05-15T07:27:35.930Z,40.77
2023-05-15T07:30:04.153Z,41.33
2023-05-15T07:32:31.065Z,41.90
2023-05-15T07:34:57.569Z,37.97
2023-05-15T07:37:24.822Z,38.17
2023-05-15T07:39:51.853Z,37.93
2023-05-15T07:42:18.259Z,38.27
2023-05-15T07:44:46.549Z,37.50
2023-05-15T07:47:14.375Z,39.13
2023-05-15T07:49:40.874Z,39.20
2023-05-15T07:52:07.614Z,37.53
2023-05-15T07:54:34.123Z,40.90
2023-05-15T07:57:01.280Z,40.10
2023-05-15T07:59:27.844Z,38.03
2023-05-15T08:01:54.358Z,38.67
2023-05-15T08:04:20.841Z,39.27
2023-05-15T08:06:47.360Z,36.83
2023-05-15T08:09:13.820Z,39.20
2023-05-15T08:11:40.515Z,39.00
2023-05-15T08:14:06.953Z,40.77
2023-05-15T08:16:34.155Z,38.60
2023-05-15T08:19:04.609Z,38.23
2023-05-15T08:21:31.510Z,36.83
2023-05-15T08:23:59.927Z,35.00
2023-05-15T08:26:26.783Z,35.40
2023-05-15T08:28:53.217Z,36.57
2023-05-15T08:31:19.663Z,35.43
2023-05-15T08:33:46.213Z,34.67
2023-05-15T08:36:12.868Z,35.70
2023-05-15T08:38:39.364Z,32.40
2023-05-15T08:41:11.028Z,34.33
2023-05-15T08:43:39.212Z,37.83
2023-05-15T08:46:06.819Z,38.83
2023-05-15T08:48:37.373Z,37.67
2023-05-15T08:51:08.556Z,43.27
2023-05-15T08:53:34.993Z,45.70
2023-05-15T08:56:01.805Z,43.50
2023-05-15T08:58:28.761Z,39.10
2023-05-15T09:00:55.418Z,39.80
2023-05-15T09:03:23.393Z,39.63
2023-05-15T09:05:53.186Z,37.17
2023-05-15T09:08:23.533Z,33.77
2023-05-15T09:10:50.857Z,36.70
2023-05-15T09:13:17.519Z,38.57
2023-05-15T09:15:46.820Z,37.13
2023-05-15T09:18:14.788Z,38.87
2023-05-15T09:20:41.462Z,36.70
2023-05-15T09:23:24.474Z,35.20
2023-05-15T09:25:53.528Z,33.90
2023-05-15T09:28:31.588Z,31.30
2023-05-15T09:31:03.203Z,32.33
2023-05-15T09:33:40.203Z,31.10
2023-05-15T09:36:07.931Z,32.30
2023-05-15T09:38:42.790Z,35.90
2023-05-15T09:41:09.759Z,32.10
2023-05-15T09:43:40.562Z,36.93
2023-05-15T09:46:13.072Z,35.40
2023-05-15T09:48:39.703Z,33.70
2023-05-15T09:51:14.314Z,36.83
2023-05-15T09:53:40.936Z,36.57
2023-05-15T09:56:09.839Z,36.80
2023-05-15T09:58:36.799Z,32.33
2023-05-15T10:01:04.210Z,33.30
2023-05-15T10:03:30.758Z,34.20
2023-05-15T10:06:02.077Z,34.97
2023-05-15T10:08:29.180Z,34.50
2023-05-15T10:11:01.187Z,32.57
2023-05-15T10:13:31.534Z,32.37
2023-05-15T10:15:59.270Z,32.90
2023-05-15T10:18:30.012Z,29.77
2023-05-15T10:20:58.036Z,30.00
2023-05-15T10:23:25.597Z,30.20
2023-05-15T10:26:03.139Z,31.03
2023-05-15T10:28:30.278Z,31.67
2023-05-15T10:31:01.106Z,31.47
2023-05-15T10:33:29.304Z,30.30
2023-05-15T10:35:58.605Z,30.13
2023-05-15T10:38:26.078Z,28.70
2023-05-15T10:41:05.583Z,28.23
2023-05-15T10:43:42.222Z,29.20
2023-05-15T10:46:10.000Z,29.57
2023-05-15T10:48:37.091Z,29.73
2023-05-15T10:51:03.819Z,28.27
2023-05-15T10:53:32.721Z,30.20
2023-05-15T10:55:59.387Z,28.67
2023-05-15T10:58:25.916Z,28.23
2023-05-15T11:00:52.344Z,26.43
2023-05-15T11:03:48.151Z,26.50
2023-05-15T11:06:16.035Z,24.20
2023-05-15T11:08:45.080Z,28.40
2023-05-15T11:11:50.215Z,26.33
2023-05-15T11:14:16.776Z,23.33
2023-05-15T11:16:52.529Z,25.33
2023-05-15T11:19:32.533Z,25.50
2023-05-15T11:22:00.209Z,25.83
2023-05-15T11:24:30.853Z,24.67
2023-05-15T11:27:01.827Z,23.93
2023-05-15T11:29:28.498Z,23.13
2023-05-15T11:31:55.352Z,24.67
2023-05-15T11:34:33.481Z,24.00
2023-05-15T11:37:00.824Z,22.40
2023-05-15T11:39:28.618Z,22.80
2023-05-15T11:41:55.369Z,21.90
2023-05-15T11:44:23.330Z,23.60
2023-05-15T11:46:53.096Z,23.73
2023-05-15T11:49:19.952Z,23.47
2023-05-15T11:51:48.499Z,25.13
2023-05-15T11:54:15.181Z,22.27
2023-05-15T11:56:44.545Z,22.20
2023-05-15T11:59:17.364Z,22.03
2023-05-15T12:01:49.084Z,24.23
2023-05-15T12:04:17.681Z,22.93
2023-05-15T12:06:47.297Z,22.20
2023-05-15T12:09:18.963Z,22.97
2023-05-15T12:11:50.801Z,21.57
2023-05-15T12:14:17.213Z,25.23
2023-05-15T12:16:43.650Z,20.57
2023-05-15T12:19:10.793Z,21.97
2023-05-15T12:21:43.065Z,23.67
2023-05-15T12:24:11.553Z,22.77
2023-05-15T12:26:39.314Z,24.50
2023-05-15T12:29:06.452Z,25.63
2023-05-15T12:31:36.484Z,25.77
2023-05-15T12:34:03.164Z,25.00
2023-05-15T12:36:31.017Z,24.60
2023-05-15T12:38:58.475Z,26.67
2023-05-15T12:41:31.389Z,25.77
2023-05-15T12:43:57.866Z,23.27
2023-05-15T12:46:33.807Z,24.23
2023-05-15T12:49:01.126Z,21.60
2023-05-15T12:51:30.032Z,22.90
2023-05-15T12:53:59.419Z,18.90
2023-05-15T12:56:26.406Z,22.47
2023-05-15T12:58:54.538Z,21.83
2023-05-15T13:01:21.694Z,21.40
2023-05-15T13:03:49.503Z,20.00
2023-05-15T13:06:16.377Z,20.33
2023-05-15T13:08:42.844Z,18.30
2023-05-15T13:11:16.584Z,17.67
2023-05-15T13:13:48.033Z,16.30
2023-05-15T13:16:25.875Z,15.37
2023-05-15T13:18:52.946Z,14.20
2023-05-15T13:21:19.630Z,14.30
2023-05-15T13:23:46.130Z,13.13
2023-05-15T13:26:12.669Z,14.50
2023-05-15T13:28:39.190Z,15.27
2023-05-15T13:31:06.104Z,12.80
2023-05-15T13:33:33.944Z,15.40
2023-05-15T13:36:00.419Z,15.73
2023-05-15T13:38:26.851Z,14.80
2023-05-15T13:40:53.280Z,15.00
2023-05-15T13:43:19.703Z,13.20
2023-05-15T13:45:46.152Z,12.70
2023-05-15T13:48:12.611Z,12.23
2023-05-15T13:50:39.541Z,12.40
2023-05-15T13:53:06.322Z,12.70
2023-05-15T13:55:32.760Z,11.70
2023-05-15T13:57:59.235Z,11.30
2023-05-15T14:00:25.845Z,11.83
2023-05-15T14:02:52.673Z,11.90
2023-05-15T14:05:19.276Z,12.37
2023-05-15T14:07:46.118Z,11.30
2023-05-15T14:10:12.616Z,10.30
2023-05-15T14:12:39.627Z,9.57
2023-05-15T14:15:06.705Z,10.67
2023-05-15T14:17:33.134Z,10.47
2023-05-15T14:19:59.724Z,11.90
2023-05-15T14:22:26.176Z,11.90
2023-05-15T14:24:53.109Z,10.50
2023-05-15T14:27:19.670Z,10.10
2023-05-15T14:29:46.277Z,10.10
2023-05-15T14:32:14.576Z,10.90
2023-05-15T14:34:41.085Z,10.00
2023-05-15T14:37:07.499Z,9.10
2023-05-15T14:39:33.887Z,10.20
2023-05-15T14:42:00.259Z,10.20
2023-05-15T14:44:26.675Z,11.37
2023-05-15T14:47:10.811Z,11.90
2023-05-15T14:49:37.742Z,12.37
2023-05-15T14:52:07.502Z,11.17
2023-05-15T14:54:35.511Z,11.10
2023-05-15T14:57:02.184Z,12.13
2023-05-15T14:59:28.624Z,13.47
2023-05-15T15:01:55.132Z,12.50
2023-05-15T15:04:21.538Z,11.90
2023-05-15T15:06:48.483Z,12.43
2023-05-15T15:09:14.971Z,12.50
2023-05-15T15:11:41.388Z,11.30
2023-05-15T15:14:07.827Z,10.87
2023-05-15T15:16:34.370Z,9.33
2023-05-15T15:19:00.845Z,9.73
2023-05-15T15:21:27.438Z,10.17
2023-05-15T15:23:55.126Z,9.77
2023-05-15T15:26:21.776Z,12.37
2023-05-15T15:28:48.266Z,12.30
2023-05-15T15:31:15.419Z,15.50
2023-05-15T15:33:41.933Z,20.03
2023-05-15T15:36:08.463Z,9.60
2023-05-15T15:38:34.846Z,10.77
2023-05-15T15:41:03.142Z,10.80
2023-05-15T15:43:29.585Z,10.13
2023-05-15T15:45:56.066Z,11.77
2023-05-15T15:48:22.932Z,10.90
2023-05-15T15:50:50.083Z,10.90
2023-05-15T15:53:16.499Z,11.50
2023-05-15T15:55:44.156Z,10.90
2023-05-15T15:58:11.591Z,10.43
2023-05-15T16:00:38.071Z,10.60
2023-05-15T16:03:04.654Z,11.67
2023-05-15T16:05:31.211Z,13.27
2023-05-15T16:07:57.763Z,16.30
2023-05-15T16:10:24.308Z,16.30
2023-05-15T16:12:51.173Z,14.73
2023-05-15T16:15:23.145Z,17.03
2023-05-15T16:17:54.472Z,16.77
2023-05-15T16:20:21.877Z,17.23
2023-05-15T16:22:48.444Z,16.70
2023-05-15T16:25:14.905Z,17.73
2023-05-15T16:27:41.401Z,17.30
2023-05-15T16:30:09.292Z,14.97
2023-05-15T16:32:36.013Z,15.37
2023-05-15T16:35:02.997Z,13.87
2023-05-15T16:37:29.448Z,13.30
2023-05-15T16:39:55.863Z,15.27
2023-05-15T16:42:22.285Z,14.50
2023-05-15T16:44:48.708Z,14.57
2023-05-15T16:47:15.138Z,12.77
2023-05-15T16:49:44.151Z,14.60
2023-05-15T16:52:11.410Z,15.50
2023-05-15T16:54:38.043Z,13.20
2023-05-15T16:57:04.988Z,13.90
2023-05-15T16:59:31.550Z,16.27
2023-05-15T17:01:59.050Z,13.90
2023-05-15T17:04:25.746Z,16.10
2023-05-15T17:06:52.176Z,14.33
2023-05-15T17:09:18.643Z,15.50
2023-05-15T17:11:45.064Z,15.30
2023-05-15T17:14:11.449Z,17.07
2023-05-15T17:16:37.940Z,17.50
2023-05-15T17:19:04.510Z,18.20
2023-05-15T17:21:31.709Z,17.57
2023-05-15T17:23:58.257Z,24.00
2023-05-15T17:26:24.798Z,20.30
2023-05-15T17:28:51.175Z,19.47
2023-05-15T17:31:17.826Z,18.47
2023-05-15T17:33:44.253Z,19.20
2023-05-15T17:36:10.721Z,18.53
2023-05-15T17:38:37.224Z,21.13
2023-05-15T17:41:03.658Z,20.67
2023-05-15T17:43:30.139Z,20.80
2023-05-15T17:45:57.484Z,18.70
2023-05-15T17:48:23.990Z,19.43
2023-05-15T17:50:51.675Z,20.83
2023-05-15T17:53:18.175Z,20.67
2023-05-15T17:55:45.239Z,20.50
2023-05-15T17:58:11.709Z,20.20
2023-05-15T18:00:38.157Z,21.30
2023-05-15T18:03:04.696Z,21.23
2023-05-15T18:05:31.284Z,22.40
2023-05-15T18:07:58.124Z,21.60
2023-05-15T18:10:24.706Z,20.57
2023-05-15T18:12:51.205Z,24.97
2023-05-15T18:15:17.646Z,26.20
2023-05-15T18:17:44.133Z,27.80
2023-05-15T18:20:11.530Z,28.57
2023-05-15T18:22:38.288Z,27.40
2023-05-15T18:25:05.528Z,28.00
2023-05-15T18:27:31.982Z,27.67
2023-05-15T18:29:58.433Z,29.70
2023-05-15T18:32:24.857Z,29.40
2023-05-15T18:34:51.273Z,29.20
2023-05-15T18:37:17.733Z,29.47
2023-05-15T18:39:44.241Z,31.60
2023-05-15T18:42:10.868Z,30.70
2023-05-15T18:44:37.312Z,30.57
2023-05-15T18:47:03.952Z,30.30
2023-05-15T18:49:30.498Z,31.40
2023-05-15T18:51:57.902Z,31.47
2023-05-15T18:54:24.487Z,29.30
2023-05-15T18:56:51.017Z,30.17
2023-05-15T18:59:17.505Z,30.60
2023-05-15T19:01:45.079Z,30.83
2023-05-15T19:04:11.956Z,29.90
2023-05-15T19:06:39.166Z,27.40
2023-05-15T19:09:05.572Z,29.50
2023-05-15T19:11:31.982Z,29.00
2023-05-15T19:13:58.343Z,26.93
2023-05-15T19:16:28.444Z,26.17
2023-05-15T19:18:55.568Z,25.90
2023-05-15T19:21:22.273Z,23.70
2023-05-15T19:23:50.342Z,24.30
2023-05-15T19:26:16.804Z,24.50
2023-05-15T19:28:43.376Z,25.20
2023-05-15T19:31:20.163Z,24.20
2023-05-15T19:33:54.204Z,22.47
2023-05-15T19:36:20.681Z,22.17
2023-05-15T19:38:47.820Z,20.70
2023-05-15T19:41:14.776Z,21.13
2023-05-15T19:43:41.376Z,22.00
2023-05-15T19:46:07.787Z,21.03
2023-05-15T19:48:34.217Z,21.13
2023-05-15T19:51:00.751Z,21.13
2023-05-15T19:53:27.328Z,21.20
2023-05-15T19:55:53.727Z,21.00
2023-05-15T19:58:22.192Z,22.43
2023-05-15T20:00:49.823Z,22.43
2023-05-15T20:03:16.297Z,23.40
2023-05-15T20:05:43.047Z,24.63
2023-05-15T20:08:09.495Z,22.93
2023-05-15T20:10:35.860Z,24.10
2023-05-15T20:13:02.870Z,22.83
2023-05-15T20:15:31.474Z,24.13
2023-05-15T20:17:58.183Z,23.03
2023-05-15T20:20:25.195Z,22.03
2023-05-15T20:22:51.771Z,22.77
2023-05-15T20:25:18.327Z,23.57
2023-05-15T20:27:44.740Z,20.80
2023-05-15T20:30:11.676Z,20.63
2023-05-15T20:32:38.269Z,18.83
2023-05-15T20:35:05.728Z,18.00
2023-05-15T20:37:33.238Z,17.43
2023-05-15T20:40:00.175Z,15.90
2023-05-15T20:42:28.041Z,14.87
2023-05-15T20:44:54.521Z,14.60
2023-05-15T20:47:21.020Z,13.73
2023-05-15T20:49:47.563Z,13.30
2023-05-15T20:52:13.987Z,12.93
2023-05-15T20:54:40.488Z,12.10
2023-05-15T20:57:06.964Z,11.70
2023-05-15T20:59:33.953Z,11.10
2023-05-15T21:02:00.339Z,11.93
2023-05-15T21:04:26.808Z,11.33
2023-05-15T21:06:54.162Z,10.57
2023-05-15T21:09:20.683Z,10.90
2023-05-15T21:11:47.274Z,12.10
2023-05-15T21:14:14.060Z,9.70
2023-05-15T21:16:40.759Z,10.27
2023-05-15T21:19:07.283Z,10.63
2023-05-15T21:21:35.227Z,10.30
2023-05-15T21:24:05.089Z,10.40
2023-05-15T21:26:31.604Z,9.60
2023-05-15T21:28:59.120Z,9.87
2023-05-15T21:31:26.831Z,9.80
2023-05-15T21:33:54.257Z,10.50
2023-05-15T21:36:21.307Z,8.73
2023-05-15T21:38:47.767Z,9.77
2023-05-15T21:41:14.198Z,10.07
2023-05-15T21:43:40.627Z,9.00
2023-05-15T21:46:07.132Z,8.93
2023-05-15T21:48:33.556Z,9.00
2023-05-15T21:50:59.958Z,9.77
2023-05-15T21:53:26.626Z,10.20
2023-05-15T21:55:59.535Z,8.83
2023-05-15T21:58:25.985Z,9.60
2023-05-15T22:00:52.465Z,9.07
2023-05-15T22:03:19.947Z,8.80
2023-05-15T22:05:47.647Z,8.50
2023-05-15T22:08:14.048Z,9.20
2023-05-15T22:10:41.205Z,8.30
2023-05-15T22:13:08.968Z,9.00
2023-05-15T22:15:35.636Z,8.67
2023-05-15T22:18:03.841Z,8.07
2023-05-15T22:20:30.536Z,8.03
2023-05-15T22:22:57.249Z,7.47
2023-05-15T22:25:24.048Z,7.37
2023-05-15T22:27:50.664Z,7.43
2023-05-15T22:30:17.298Z,6.90
2023-05-15T22:32:43.777Z,6.40
2023-05-15T22:35:11.336Z,6.30
2023-05-15T22:37:38.362Z,5.30
2023-05-15T22:40:07.439Z,6.07
2023-05-15T22:42:33.862Z,4.73
2023-05-15T22:45:00.763Z,5.07
2023-05-15T22:47:28.413Z,6.17
2023-05-15T22:49:54.875Z,5.03
2023-05-15T22:52:21.342Z,5.47
2023-05-15T22:54:47.921Z,5.40
2023-05-15T22:57:14.379Z,6.40
2023-05-15T22:59:40.981Z,5.80
2023-05-15T23:02:07.381Z,5.60
2023-05-15T23:04:34.607Z,5.10
2023-05-15T23:07:01.031Z,6.10
2023-05-15T23:09:27.437Z,5.40
2023-05-15T23:11:53.893Z,6.00
2023-05-15T23:14:21.686Z,6.07
2023-05-15T23:16:49.773Z,5.87
2023-05-15T23:19:16.614Z,6.73
2023-05-15T23:21:43.090Z,7.03
2023-05-15T23:24:09.585Z,6.77
2023-05-15T23:26:36.027Z,7.40
2023-05-15T23:29:02.591Z,8.67
2023-05-15T23:31:29.181Z,7.30
2023-05-15T23:33:55.635Z,8.37
2023-05-15T23:36:22.042Z,9.20
2023-05-15T23:38:48.491Z,9.50
2023-05-15T23:41:14.900Z,8.83
2023-05-15T23:43:41.298Z,8.40
2023-05-15T23:46:07.783Z,8.03
2023-05-15T23:48:34.294Z,9.60
2023-05-15T23:51:00.847Z,8.93
2023-05-15T23:53:27.222Z,8.30
2023-05-15T23:55:53.628Z,8.10
2023-05-15T23:58:20.006Z,7.93
